createdAt,value
2023-02-19T00:00:11.607Z,100831.69
2023-02-19T00:02:46.547Z,100830.84
2023-02-19T00:05:14.626Z,100838.88
2023-02-19T00:07:45.064Z,100832.66
2023-02-19T00:10:14.717Z,100825.53
2023-02-19T00:12:42.844Z,100833.53
2023-02-19T00:15:33.490Z,100821.13
2023-02-19T00:18:01.548Z,100830.84
2023-02-19T00:20:30.017Z,100829.09
2023-02-19T00:22:58.355Z,100828.22
2023-02-19T00:25:27.890Z,100830.84
2023-02-19T00:27:56.071Z,100827.28
2023-02-19T00:30:24.440Z,100832.63
2023-02-19T00:32:52.573Z,100837.09
2023-02-19T00:35:20.860Z,100822.06
2023-02-19T00:37:49.486Z,100814.00
2023-02-19T00:40:20.308Z,100819.34
2023-02-19T00:42:49.771Z,100808.72
2023-02-19T00:45:20.816Z,100815.78
2023-02-19T00:47:49.004Z,100819.31
2023-02-19T00:50:17.458Z,100822.94
2023-02-19T00:52:45.499Z,100819.31
2023-02-19T00:55:13.607Z,100820.28
2023-02-19T00:57:41.682Z,100813.97
2023-02-19T01:00:15.242Z,100824.66
2023-02-19T01:02:43.373Z,100839.69
2023-02-19T01:05:11.548Z,100842.44
2023-02-19T01:07:39.619Z,100834.53
2023-02-19T01:10:09.668Z,100833.56
2023-02-19T01:12:37.771Z,100831.81
2023-02-19T01:15:06.605Z,100807.94
2023-02-19T01:17:38.116Z,100807.94
2023-02-19T01:20:09.064Z,100806.19
2023-02-19T01:22:37.157Z,100800.06
2023-02-19T01:25:07.969Z,100809.75
2023-02-19T01:27:36.025Z,100820.38
2023-02-19T01:30:04.655Z,100808.91
2023-02-19T01:32:32.790Z,100813.38
2023-02-19T01:35:05.880Z,100819.63
2023-02-19T01:37:34.146Z,100811.66
2023-02-19T01:40:02.314Z,100807.22
2023-02-19T01:42:30.606Z,100794.94
2023-02-19T01:45:28.447Z,100789.69
2023-02-19T01:48:11.069Z,100787.06
2023-02-19T01:50:47.120Z,100795.06
2023-02-19T01:53:22.422Z,100791.63
2023-02-19T01:55:54.240Z,100794.28
2023-02-19T01:58:22.990Z,100793.34
2023-02-19T02:00:52.019Z,100780.09
2023-02-19T02:03:20.819Z,100785.31
2023-02-19T02:05:57.467Z,100780.97
2023-02-19T02:10:35.592Z,100772.09
2023-02-19T02:13:04.054Z,100773.84
2023-02-19T02:15:41.046Z,100782.69
2023-02-19T02:18:21.005Z,100773.81
2023-02-19T02:21:04.806Z,100768.44
2023-02-19T02:23:47.570Z,100765.78
2023-02-19T02:26:31.699Z,100764.88
2023-02-19T02:29:27.150Z,100761.34
2023-02-19T02:32:04.451Z,100758.69
2023-02-19T02:34:38.952Z,100749.69
2023-02-19T02:37:09.084Z,100747.91
2023-02-19T02:39:39.460Z,100738.16
2023-02-19T02:42:26.082Z,100734.69
2023-02-19T02:45:36.111Z,100746.16
2023-02-19T02:48:21.444Z,100731.94
2023-02-19T02:50:54.962Z,100738.19
2023-02-19T02:53:46.838Z,100742.66
2023-02-19T02:56:16.742Z,100751.47
2023-02-19T02:58:46.837Z,100744.38
2023-02-19T03:01:36.675Z,100732.94
2023-02-19T03:04:11.018Z,100733.84
2023-02-19T03:06:39.666Z,100730.34
2023-02-19T03:09:12.665Z,100721.44
2023-02-19T03:12:06.097Z,100735.66
2023-02-19T03:14:57.486Z,100732.91
2023-02-19T03:17:48.682Z,100739.06
2023-02-19T03:20:22.414Z,100738.94
2023-02-19T03:22:54.344Z,100713.47
2023-02-19T03:25:43.687Z,100724.75
2023-02-19T03:28:17.643Z,100714.09
2023-02-19T03:30:51.586Z,100724.81
2023-02-19T03:33:23.787Z,100731.78
2023-02-19T03:35:57.597Z,100726.53
2023-02-19T03:38:37.916Z,100730.81
2023-02-19T03:41:12.752Z,100719.34
2023-02-19T03:43:52.358Z,100726.44
2023-02-19T03:46:26.539Z,100721.13
2023-02-19T03:49:00.088Z,100723.72
2023-02-19T03:51:39.260Z,100730.00
2023-02-19T03:54:18.296Z,100732.59
2023-02-19T03:56:52.815Z,100742.34
2023-02-19T03:59:29.751Z,100744.97
2023-02-19T04:02:04.180Z,100752.94
2023-02-19T04:04:40.430Z,100753.06
2023-02-19T04:07:12.035Z,100756.69
2023-02-19T04:09:46.757Z,100761.13
2023-02-19T04:12:20.351Z,100756.75
2023-02-19T04:14:55.529Z,100746.97
2023-02-19T04:17:30.603Z,100755.78
2023-02-19T04:20:02.247Z,100751.38
2023-02-19T04:22:35.169Z,100748.69
2023-02-19T04:25:03.918Z,100749.53
2023-02-19T04:27:32.840Z,100746.91
2023-02-19T04:30:01.065Z,100736.44
2023-02-19T04:32:29.510Z,100741.84
2023-02-19T04:34:57.591Z,100733.13
2023-02-19T04:37:28.149Z,100741.16
2023-02-19T04:39:59.783Z,100745.78
2023-02-19T04:42:30.576Z,100745.94
2023-02-19T04:44:58.704Z,100746.81
2023-02-19T04:47:27.186Z,100755.69
2023-02-19T04:49:55.276Z,100751.34
2023-02-19T04:52:23.732Z,100763.78
2023-02-19T04:54:52.232Z,100760.31
2023-02-19T04:57:22.072Z,100760.28
2023-02-19T04:59:50.133Z,100757.56
2023-02-19T05:02:18.414Z,100769.91
2023-02-19T05:04:46.508Z,100761.94
2023-02-19T05:07:14.750Z,100755.72
2023-02-19T05:09:42.812Z,100763.66
2023-02-19T05:12:11.034Z,100758.34
2023-02-19T05:14:40.474Z,100773.47
2023-02-19T05:17:08.929Z,100778.94
2023-02-19T05:19:36.976Z,100780.66
2023-02-19T05:22:07.643Z,100790.47
2023-02-19T05:24:35.725Z,100792.34
2023-02-19T05:27:04.127Z,100801.22
2023-02-19T05:29:32.776Z,100804.94
2023-02-19T05:32:02.833Z,100810.38
2023-02-19T05:34:31.135Z,100793.63
2023-02-19T05:37:01.752Z,100782.28
2023-02-19T05:39:35.494Z,100787.72
2023-02-19T05:42:06.698Z,100781.66
2023-02-19T05:44:34.872Z,100786.16
2023-02-19T05:47:04.817Z,100782.75
2023-02-19T05:49:33.020Z,100785.50
2023-02-19T05:52:03.581Z,100779.31
2023-02-19T05:54:32.500Z,100783.78
2023-02-19T05:57:00.836Z,100790.84
2023-02-19T05:59:29.122Z,100791.75
2023-02-19T06:01:58.467Z,100796.19
2023-02-19T06:04:28.051Z,100821.97
2023-02-19T06:06:56.458Z,100819.31
2023-02-19T06:09:26.838Z,100824.63
2023-02-19T06:11:55.276Z,100816.69
2023-02-19T06:14:23.446Z,100824.66
2023-02-19T06:16:51.577Z,100829.97
2023-02-19T06:19:20.224Z,100821.19
2023-02-19T06:21:51.374Z,100831.84
2023-02-19T06:24:19.887Z,100826.53
2023-02-19T06:26:47.985Z,100829.22
2023-02-19T06:29:17.890Z,100835.47
2023-02-19T06:31:46.263Z,100841.63
2023-02-19T06:34:14.630Z,100845.16
2023-02-19T06:36:45.109Z,100842.50
2023-02-19T06:39:14.713Z,100848.63
2023-02-19T06:41:42.854Z,100851.28
2023-02-19T06:44:11.264Z,100856.66
2023-02-19T06:46:39.712Z,100853.09
2023-02-19T06:49:07.948Z,100856.66
2023-02-19T06:51:36.175Z,100864.63
2023-02-19T06:54:04.492Z,100873.47
2023-02-19T06:56:35.518Z,100885.81
2023-02-19T06:59:06.053Z,100880.50
2023-02-19T07:01:36.423Z,100889.34
2023-02-19T07:04:05.046Z,100885.78
2023-02-19T07:06:34.637Z,100893.72
2023-02-19T07:11:37.950Z,100902.56
2023-02-19T07:14:14.753Z,100900.66
2023-02-19T07:16:43.462Z,100895.25
2023-02-19T07:19:13.021Z,100892.50
2023-02-19T07:21:42.499Z,100898.72
2023-02-19T07:24:11.423Z,100884.38
2023-02-19T07:26:41.576Z,100889.53
2023-02-19T07:29:11.085Z,100889.28
2023-02-19T07:31:39.720Z,100885.47
2023-02-19T07:34:08.673Z,100888.00
2023-02-19T07:36:36.985Z,100895.94
2023-02-19T07:39:05.682Z,100905.47
2023-02-19T07:41:34.276Z,100912.38
2023-02-19T07:44:04.294Z,100918.44
2023-02-19T07:46:32.958Z,100912.03
2023-02-19T07:49:01.378Z,100918.00
2023-02-19T07:51:29.848Z,100922.25
2023-02-19T07:53:58.491Z,100926.53
2023-02-19T07:56:28.972Z,100933.53
2023-02-19T07:58:57.049Z,100933.47
2023-02-19T08:01:40.665Z,100930.81
2023-02-19T08:04:12.773Z,100944.94
2023-02-19T08:06:41.905Z,100939.53
2023-02-19T08:09:12.084Z,100945.72
2023-02-19T08:12:00.262Z,100950.00
2023-02-19T08:14:28.770Z,100954.50
2023-02-19T08:19:44.045Z,100969.56
2023-02-19T08:22:12.820Z,100967.66
2023-02-19T08:24:42.984Z,100963.00
2023-02-19T08:27:11.357Z,100970.69
2023-02-19T08:29:39.795Z,100971.53
2023-02-19T08:32:09.488Z,100977.47
2023-02-19T08:34:38.025Z,100981.97
2023-02-19T08:37:06.383Z,100980.03
2023-02-19T08:39:34.638Z,100983.56
2023-02-19T08:42:03.010Z,100993.72
2023-02-19T08:44:31.137Z,100996.97
2023-02-19T08:46:59.564Z,100996.59
2023-02-19T08:49:29.384Z,101005.41
2023-02-19T08:52:02.196Z,101006.63
2023-02-19T08:54:31.507Z,101023.47
2023-02-19T08:56:59.846Z,101020.97
2023-02-19T08:59:29.936Z,101031.50
2023-02-19T09:01:59.650Z,101034.00
2023-02-19T09:04:32.447Z,101050.09
2023-02-19T09:07:00.866Z,101040.56
2023-02-19T09:09:28.951Z,101042.53
2023-02-19T09:11:57.286Z,101044.94
2023-02-19T09:14:28.254Z,101034.59
2023-02-19T09:17:15.081Z,101032.13
2023-02-19T09:19:44.771Z,101029.34
2023-02-19T09:22:13.077Z,101026.63
2023-02-19T09:24:41.194Z,101022.03
2023-02-19T09:27:16.994Z,101027.56
2023-02-19T09:29:48.117Z,101015.94
2023-02-19T09:32:18.811Z,101025.88
2023-02-19T09:34:50.049Z,101035.53
2023-02-19T09:37:18.533Z,101048.53
2023-02-19T09:39:46.578Z,101046.50
2023-02-19T09:42:19.595Z,101044.47
2023-02-19T09:44:53.709Z,101050.41
2023-02-19T09:47:26.394Z,101049.41
2023-02-19T09:49:58.261Z,101051.59
2023-02-19T09:52:32.769Z,101053.25
2023-02-19T09:55:05.921Z,101047.59
2023-02-19T09:57:37.834Z,101054.75
2023-02-19T10:00:15.192Z,101062.97
2023-02-19T10:02:45.981Z,101071.78
2023-02-19T10:05:17.378Z,101071.38
2023-02-19T10:07:51.165Z,101069.81
2023-02-19T10:10:28.664Z,101064.00
2023-02-19T10:13:11.290Z,101067.38
2023-02-19T10:15:47.408Z,101063.84
2023-02-19T10:18:19.211Z,101056.00
2023-02-19T10:20:49.543Z,101063.59
2023-02-19T10:23:21.295Z,101064.34
2023-02-19T10:25:54.301Z,101070.50
2023-02-19T10:28:25.848Z,101065.38
2023-02-19T10:30:56.189Z,101063.59
2023-02-19T10:33:24.910Z,101077.34
2023-02-19T10:35:59.058Z,101071.28
2023-02-19T10:38:33.324Z,101080.88
2023-02-19T10:41:06.901Z,101067.25
2023-02-19T10:43:40.150Z,101074.81
2023-02-19T10:46:09.409Z,101065.13
2023-02-19T10:48:41.952Z,101054.47
2023-02-19T10:51:20.893Z,101080.34
2023-02-19T10:53:51.265Z,101081.00
2023-02-19T10:56:25.123Z,101085.78
2023-02-19T10:58:54.389Z,101089.97
2023-02-19T11:01:24.063Z,101090.53
2023-02-19T11:03:54.305Z,101095.19
2023-02-19T11:06:28.023Z,101107.06
2023-02-19T11:08:58.751Z,101107.41
2023-02-19T11:11:34.182Z,101116.03
2023-02-19T11:14:06.458Z,101122.91
2023-02-19T11:16:46.752Z,101126.81
2023-02-19T11:19:37.737Z,101130.50
2023-02-19T11:22:22.034Z,101124.56
2023-02-19T11:24:55.702Z,101120.75
2023-02-19T11:27:26.212Z,101113.91
2023-02-19T11:29:54.721Z,101111.88
2023-02-19T11:32:26.548Z,101117.31
2023-02-19T11:35:17.757Z,101114.94
2023-02-19T11:38:02.591Z,101107.25
2023-02-19T11:40:41.185Z,101104.13
2023-02-19T11:43:24.946Z,101072.25
2023-02-19T11:46:07.342Z,101144.00
2023-02-19T11:48:54.893Z,101139.94
2023-02-19T11:51:35.579Z,101140.88
2023-02-19T11:54:19.764Z,101132.63
2023-02-19T11:56:56.470Z,101133.72
2023-02-19T11:59:37.016Z,101136.63
2023-02-19T12:02:26.479Z,101144.59
2023-02-19T12:05:26.904Z,101149.72
2023-02-19T12:08:37.708Z,101143.72
2023-02-19T12:12:51.476Z,101148.84
2023-02-19T12:15:31.404Z,101140.75
2023-02-19T12:18:29.568Z,101142.25
2023-02-19T12:21:07.564Z,101135.53
2023-02-19T12:23:53.186Z,101130.25
2023-02-19T12:26:27.064Z,101125.41
2023-02-19T12:29:25.148Z,101118.78
2023-02-19T12:32:13.398Z,101112.19
2023-02-19T12:35:08.199Z,101114.06
2023-02-19T12:37:46.032Z,101108.00
2023-02-19T12:40:29.134Z,101114.31
2023-02-19T12:43:10.842Z,101115.81
2023-02-19T12:45:48.297Z,101119.47
2023-02-19T12:48:25.463Z,101116.72
2023-02-19T12:50:58.345Z,101117.63
2023-02-19T12:53:37.178Z,101119.75
2023-02-19T12:56:11.670Z,101120.78
2023-02-19T12:58:45.180Z,101120.59
2023-02-19T13:01:20.696Z,101115.34
2023-02-19T13:03:55.098Z,101110.06
2023-02-19T13:06:32.975Z,101106.91
2023-02-19T13:09:09.195Z,101116.25
2023-02-19T13:11:41.287Z,101104.22
2023-02-19T13:14:22.233Z,101123.25
2023-02-19T13:16:58.671Z,101114.94
2023-02-19T13:19:27.005Z,101113.25
2023-02-19T13:22:22.679Z,101112.13
2023-02-19T13:24:52.828Z,101101.44
2023-02-19T13:27:38.400Z,101106.63
2023-02-19T13:30:24.006Z,101101.03
2023-02-19T13:33:04.573Z,101092.59
2023-02-19T13:36:10.803Z,101097.75
2023-02-19T13:38:41.533Z,101083.09
2023-02-19T13:41:20.932Z,101087.50
2023-02-19T13:43:57.252Z,101080.31
2023-02-19T13:46:26.461Z,101086.91
2023-02-19T13:49:33.774Z,101091.38
2023-02-19T13:52:38.701Z,101098.75
2023-02-19T13:55:44.394Z,101097.03
2023-02-19T13:58:54.509Z,101100.50
2023-02-19T14:02:08.252Z,101111.03
2023-02-19T14:04:53.741Z,101102.75
2023-02-19T14:07:51.732Z,101109.56
2023-02-19T14:11:05.083Z,101117.06
2023-02-19T14:14:01.657Z,101138.31
2023-02-19T14:17:07.537Z,101121.63
2023-02-19T14:19:47.225Z,101132.34
2023-02-19T14:23:07.386Z,101139.31
2023-02-19T14:25:44.695Z,101147.34
2023-02-19T14:28:30.536Z,101144.47
2023-02-19T14:31:01.726Z,101142.75
2023-02-19T14:33:33.278Z,101141.44
2023-02-19T14:36:06.927Z,101144.97
2023-02-19T14:38:40.460Z,101149.31
2023-02-19T14:41:14.784Z,101148.03
2023-02-19T14:43:44.603Z,101151.34
2023-02-19T14:46:19.931Z,101146.81
2023-02-19T14:48:53.161Z,101156.72
2023-02-19T14:51:32.402Z,101166.56
2023-02-19T14:54:10.355Z,101159.84
2023-02-19T14:56:40.645Z,101154.19
2023-02-19T14:59:23.677Z,101142.09
2023-02-19T15:02:00.547Z,101140.31
2023-02-19T15:04:31.849Z,101146.56
2023-02-19T15:07:04.140Z,101153.63
2023-02-19T15:09:38.187Z,101154.81
2023-02-19T15:12:08.932Z,101153.06
2023-02-19T15:14:37.437Z,101152.22
2023-02-19T15:17:07.259Z,101156.69
2023-02-19T15:19:39.724Z,101157.59
2023-02-19T15:22:16.273Z,101169.03
2023-02-19T15:24:48.511Z,101162.41
2023-02-19T15:27:20.855Z,101168.84
2023-02-19T15:29:53.278Z,101175.81
2023-02-19T15:32:23.394Z,101189.09
2023-02-19T15:34:56.465Z,101203.09
2023-02-19T15:37:26.138Z,101206.91
2023-02-19T15:39:55.393Z,101203.06
2023-02-19T15:42:28.097Z,101193.41
2023-02-19T15:45:04.491Z,101189.00
2023-02-19T15:47:38.904Z,101192.56
2023-02-19T15:50:11.498Z,101196.31
2023-02-19T15:52:47.897Z,101200.78
2023-02-19T15:55:35.907Z,101199.16
2023-02-19T15:58:10.804Z,101205.34
2023-02-19T16:00:44.131Z,101207.34
2023-02-19T16:03:19.820Z,101207.31
2023-02-19T16:06:00.560Z,101209.25
2023-02-19T16:08:31.164Z,101218.22
2023-02-19T16:11:02.225Z,101193.56
2023-02-19T16:13:33.678Z,101201.53
2023-02-19T16:16:15.340Z,101198.03
2023-02-19T16:18:47.306Z,101193.69
2023-02-19T16:21:24.458Z,101183.84
2023-02-19T16:24:01.044Z,101193.78
2023-02-19T16:26:29.564Z,101188.63
2023-02-19T16:28:59.157Z,101182.44
2023-02-19T16:31:27.485Z,101187.75
2023-02-19T16:34:18.119Z,101184.38
2023-02-19T16:36:49.336Z,101191.56
2023-02-19T16:39:21.935Z,101185.38
2023-02-19T16:42:15.664Z,101190.84
2023-02-19T16:44:47.083Z,101182.03
2023-02-19T16:47:33.305Z,101170.63
2023-02-19T16:50:08.657Z,101177.75
2023-02-19T16:52:39.326Z,101183.16
2023-02-19T16:55:14.462Z,101190.38
2023-02-19T16:57:44.997Z,101205.34
2023-02-19T17:00:19.842Z,101204.59
2023-02-19T17:02:52.612Z,101201.06
2023-02-19T17:05:22.632Z,101211.69
2023-02-19T17:07:51.246Z,101216.19
2023-02-19T17:13:37.640Z,101231.44
2023-02-19T17:16:08.897Z,101226.13
2023-02-19T17:18:37.098Z,101241.28
2023-02-19T17:21:14.894Z,101234.22
2023-02-19T17:23:43.157Z,101237.84
2023-02-19T17:26:15.430Z,101248.59
2023-02-19T17:28:47.839Z,101259.38
2023-02-19T17:31:16.901Z,101265.72
2023-02-19T17:33:45.230Z,101265.78
2023-02-19T17:36:18.668Z,101266.75
2023-02-19T17:38:49.688Z,101259.81
2023-02-19T17:41:20.395Z,101269.59
2023-02-19T17:43:50.481Z,101285.66
2023-02-19T17:46:20.345Z,101288.41
2023-02-19T17:48:48.665Z,101282.31
2023-02-19T17:51:19.660Z,101295.59
2023-02-19T17:53:47.793Z,101294.78
2023-02-19T17:56:21.015Z,101304.59
2023-02-19T17:58:50.841Z,101306.31
2023-02-19T18:01:19.332Z,101315.19
2023-02-19T18:03:47.773Z,101315.19
2023-02-19T18:06:18.261Z,101316.94
2023-02-19T18:08:50.904Z,101322.28
2023-02-19T18:11:20.259Z,101322.31
2023-02-19T18:13:50.846Z,101332.03
2023-02-19T18:16:19.866Z,101323.22
2023-02-19T18:18:50.714Z,101333.88
2023-02-19T18:21:19.294Z,101340.03
2023-02-19T18:23:51.957Z,101348.91
2023-02-19T18:26:21.732Z,101354.22
2023-02-19T18:28:51.290Z,101356.06
2023-02-19T18:31:20.181Z,101364.03
2023-02-19T18:33:48.585Z,101372.91
2023-02-19T18:36:18.489Z,101365.81
2023-02-19T18:38:46.761Z,101369.38
2023-02-19T18:41:19.807Z,101377.38
2023-02-19T18:43:48.864Z,101372.97
2023-02-19T18:46:21.965Z,101378.28
2023-02-19T18:48:52.782Z,101374.75
2023-02-19T18:51:25.891Z,101376.53
2023-02-19T18:53:54.008Z,101367.66
2023-02-19T18:56:24.541Z,101367.69
2023-02-19T18:58:52.644Z,101365.91
2023-02-19T19:01:22.422Z,101367.69
2023-02-19T19:03:51.051Z,101368.63
2023-02-19T19:06:19.338Z,101366.88
2023-02-19T19:08:47.525Z,101366.84
2023-02-19T19:11:18.536Z,101365.03
2023-02-19T19:13:47.042Z,101357.03
2023-02-19T19:16:15.310Z,101360.56
2023-02-19T19:18:48.580Z,101361.44
2023-02-19T19:21:18.211Z,101362.34
2023-02-19T19:23:49.504Z,101362.34
2023-02-19T19:26:20.411Z,101370.34
2023-02-19T19:28:48.596Z,101370.34
2023-02-19T19:31:20.397Z,101368.63
2023-02-19T19:33:50.324Z,101370.38
2023-02-19T19:36:21.185Z,101364.16
2023-02-19T19:38:49.971Z,101370.34
2023-02-19T19:41:19.322Z,101366.88
2023-02-19T19:43:47.747Z,101359.81
2023-02-19T19:46:20.636Z,101372.22
2023-02-19T19:48:54.036Z,101372.19
2023-02-19T19:51:24.535Z,101375.75
2023-02-19T19:53:54.974Z,101381.06
2023-02-19T19:56:23.549Z,101376.63
2023-02-19T19:58:54.053Z,101379.28
2023-02-19T20:01:23.272Z,101379.28
2023-02-19T20:03:52.943Z,101378.41
2023-02-19T20:06:29.329Z,101379.28
2023-02-19T20:08:58.430Z,101369.56
2023-02-19T20:11:27.166Z,101365.16
2023-02-19T20:13:55.460Z,101358.00
2023-02-19T20:16:29.892Z,101357.97
2023-02-19T20:18:59.736Z,101373.00
2023-02-19T20:21:28.124Z,101382.81
2023-02-19T20:23:56.880Z,101381.88
2023-02-19T20:26:26.702Z,101388.06
2023-02-19T20:28:56.035Z,101386.31
2023-02-19T20:31:24.680Z,101379.28
2023-02-19T20:33:53.152Z,101396.06
2023-02-19T20:36:27.716Z,101405.81
2023-02-19T20:38:56.846Z,101374.88
2023-02-19T20:41:25.155Z,101398.75
2023-02-19T20:43:58.294Z,101401.41
2023-02-19T20:46:26.439Z,101396.13
2023-02-19T20:48:59.837Z,101396.97
2023-02-19T20:51:29.418Z,101397.03
2023-02-19T20:53:58.267Z,101398.81
2023-02-19T20:59:13.544Z,101402.34
2023-02-19T21:01:42.115Z,101406.81
2023-02-19T21:04:10.475Z,101402.38
2023-02-19T21:06:40.817Z,101397.06
2023-02-19T21:09:09.302Z,101403.22
2023-02-19T21:11:37.604Z,101401.47
2023-02-19T21:14:05.881Z,101404.16
2023-02-19T21:16:34.483Z,101386.38
2023-02-19T21:19:02.939Z,101400.56
2023-02-19T21:21:31.915Z,101405.91
2023-02-19T21:24:02.968Z,101411.25
2023-02-19T21:26:36.168Z,101404.16
2023-02-19T21:29:04.936Z,101417.50
2023-02-19T21:31:39.350Z,101409.47
2023-02-19T21:34:08.402Z,101404.16
2023-02-19T21:36:39.100Z,101401.53
2023-02-19T21:39:10.738Z,101408.63
2023-02-19T21:41:39.019Z,101411.28
2023-02-19T21:44:09.648Z,101425.47
2023-02-19T21:46:38.467Z,101437.03
2023-02-19T21:49:07.285Z,101440.56
2023-02-19T21:51:38.093Z,101437.91
2023-02-19T21:54:09.019Z,101427.31
2023-02-19T21:56:42.271Z,101437.91
2023-02-19T21:59:13.586Z,101434.38
2023-02-19T22:01:43.302Z,101443.25
2023-02-19T22:04:15.711Z,101441.47
2023-02-19T22:06:44.846Z,101435.25
2023-02-19T22:09:15.306Z,101429.97
2023-02-19T22:14:36.804Z,101419.34
2023-02-19T22:17:04.957Z,101426.44
2023-02-19T22:19:33.064Z,101433.50
2023-02-19T22:22:01.290Z,101429.94
2023-02-19T22:24:29.590Z,101429.94
2023-02-19T22:26:59.015Z,101432.59
2023-02-19T22:29:27.316Z,101437.91
2023-02-19T22:31:57.443Z,101428.16
2023-02-19T22:34:25.690Z,101444.13
2023-02-19T22:36:53.917Z,101445.91
2023-02-19T22:39:24.692Z,101446.78
2023-02-19T22:41:53.797Z,101443.22
2023-02-19T22:44:22.582Z,101437.00
2023-02-19T22:46:55.261Z,101435.22
2023-02-19T22:49:27.426Z,101446.72
2023-02-19T22:51:59.528Z,101445.88
2023-02-19T22:54:30.169Z,101452.03
2023-02-19T22:56:58.230Z,101446.75
2023-02-19T22:59:26.369Z,101442.38
2023-02-19T23:01:55.208Z,101449.50
2023-02-19T23:04:24.798Z,101449.56
2023-02-19T23:06:56.831Z,101446.00
2023-02-19T23:09:27.341Z,101448.72
2023-02-19T23:12:03.109Z,101439.03
2023-02-19T23:14:31.212Z,101457.59
2023-02-19T23:16:59.919Z,101463.81
2023-02-19T23:19:28.763Z,101464.69
2023-02-19T23:21:58.786Z,101459.38
2023-02-19T23:24:29.742Z,101449.63
2023-02-19T23:26:59.648Z,101460.22
2023-02-19T23:29:31.703Z,101446.94
2023-02-19T23:32:00.841Z,101445.16
2023-02-19T23:34:29.136Z,101454.91
2023-02-19T23:36:59.720Z,101458.47
2023-02-19T23:39:28.382Z,101449.59
2023-02-19T23:41:58.744Z,101453.16
2023-02-19T23:44:27.100Z,101454.06
2023-02-19T23:46:55.513Z,101464.72
2023-02-19T23:49:24.395Z,101468.28
2023-02-19T23:51:52.814Z,101477.16
2023-02-19T23:54:22.760Z,101474.50
2023-02-19T23:56:51.054Z,101458.63
2023-02-19T23:59:19.216Z,101476.28
